createdAt,value
2023-01-28T00:02:42.533Z,21.70
2023-01-28T00:05:45.837Z,17.45
2023-01-28T00:08:49.989Z,16.63
2023-01-28T00:11:53.525Z,19.17
2023-01-28T00:14:56.780Z,18.45
2023-01-28T00:18:01.062Z,20.77
2023-01-28T00:21:10.622Z,23.17
2023-01-28T00:24:13.590Z,13.67
2023-01-28T00:27:16.739Z,17.20
2023-01-28T00:30:20.792Z,14.52
2023-01-28T00:33:25.458Z,14.50
2023-01-28T00:36:29.002Z,11.85
2023-01-28T00:39:31.913Z,14.27
2023-01-28T00:42:38.240Z,20.30
2023-01-28T00:45:41.192Z,11.32
2023-01-28T00:48:45.745Z,9.88
2023-01-28T00:51:49.623Z,10.68
2023-01-28T00:54:52.981Z,9.13
2023-01-28T00:57:56.600Z,11.65
2023-01-28T01:01:12.441Z,9.55
2023-01-28T01:04:27.129Z,12.73
2023-01-28T01:07:44.880Z,11.68
2023-01-28T01:10:48.446Z,11.38
2023-01-28T01:13:57.778Z,18.88
2023-01-28T01:17:01.637Z,18.48
2023-01-28T01:20:06.991Z,23.80
2023-01-28T01:23:10.704Z,12.30
2023-01-28T01:26:15.928Z,17.57
2023-01-28T01:29:19.626Z,24.30
2023-01-28T01:32:24.300Z,21.17
2023-01-28T01:35:28.089Z,25.50
2023-01-28T01:38:31.125Z,26.90
2023-01-28T01:41:34.408Z,20.67
2023-01-28T01:45:02.204Z,12.93
2023-01-28T01:48:22.841Z,22.45
2023-01-28T01:51:32.153Z,23.60
2023-01-28T01:54:37.835Z,28.90
2023-01-28T01:57:42.816Z,26.17
2023-01-28T02:00:47.433Z,19.98
2023-01-28T02:03:51.844Z,33.70
2023-01-28T02:06:54.850Z,63.40
2023-01-28T02:09:58.439Z,44.80
2023-01-28T02:13:02.502Z,51.00
2023-01-28T02:16:06.993Z,52.22
2023-01-28T02:19:11.513Z,77.18
2023-01-28T02:22:26.848Z,77.43
2023-01-28T02:26:00.828Z,73.97
2023-01-28T02:29:11.141Z,53.93
2023-01-28T02:32:20.623Z,51.42
2023-01-28T02:35:40.708Z,50.92
2023-01-28T02:38:50.051Z,30.43
2023-01-28T02:42:07.675Z,37.05
2023-01-28T02:45:54.343Z,47.50
2023-01-28T02:48:57.301Z,39.30
2023-01-28T02:52:49.036Z,57.07
2023-01-28T02:56:17.195Z,55.38
2023-01-28T03:00:08.446Z,52.08
2023-01-28T03:03:29.172Z,52.37
2023-01-28T03:06:40.107Z,57.17
2023-01-28T03:09:46.875Z,44.78
2023-01-28T03:13:13.266Z,49.58
2023-01-28T03:16:35.768Z,48.80
2023-01-28T03:19:57.165Z,53.80
2023-01-28T03:23:22.998Z,55.35
2023-01-28T03:26:48.549Z,59.85
2023-01-28T03:30:16.270Z,57.70
2023-01-28T03:33:38.931Z,66.73
2023-01-28T03:36:51.497Z,55.65
2023-01-28T03:40:15.272Z,56.63
2023-01-28T03:43:20.041Z,57.97
2023-01-28T03:46:24.540Z,56.03
2023-01-28T03:49:28.689Z,58.15
2023-01-28T03:52:33.783Z,54.63
2023-01-28T03:56:03.367Z,61.30
2023-01-28T03:59:08.230Z,80.93
2023-01-28T04:02:13.514Z,68.00
2023-01-28T04:05:20.787Z,77.35
2023-01-28T04:08:25.890Z,85.60
2023-01-28T04:12:02.016Z,116.63
2023-01-28T04:15:18.268Z,95.80
2023-01-28T04:18:28.204Z,90.80
2023-01-28T04:21:33.846Z,78.03
2023-01-28T04:24:39.488Z,149.67
2023-01-28T04:27:43.134Z,140.82
2023-01-28T04:30:55.834Z,193.57
2023-01-28T04:34:20.983Z,139.27
2023-01-28T04:37:33.733Z,132.70
2023-01-28T04:40:45.122Z,123.87
2023-01-28T04:44:00.124Z,100.75
2023-01-28T04:47:30.536Z,91.55
2023-01-28T04:50:55.353Z,110.50
2023-01-28T04:54:16.731Z,94.60
2023-01-28T04:57:20.565Z,110.63
2023-01-28T05:00:24.748Z,87.43
2023-01-28T05:03:28.217Z,76.13
2023-01-28T05:06:33.262Z,77.60
2023-01-28T05:09:43.070Z,82.37
2023-01-28T05:12:48.208Z,35.60
2023-01-28T05:15:54.804Z,40.85
2023-01-28T05:18:58.483Z,32.25
2023-01-28T05:22:09.009Z,25.85
2023-01-28T05:25:20.411Z,15.90
2023-01-28T05:28:24.137Z,18.10
2023-01-28T05:31:28.024Z,14.68
2023-01-28T05:34:32.243Z,24.17
2023-01-28T05:37:39.804Z,26.17
2023-01-28T05:40:43.299Z,50.17
2023-01-28T05:43:46.256Z,43.67
2023-01-28T05:46:50.042Z,34.17
2023-01-28T05:50:15.277Z,28.70
2023-01-28T05:53:21.275Z,28.45
2023-01-28T05:56:26.750Z,18.00
2023-01-28T05:59:29.680Z,25.15
2023-01-28T06:02:34.715Z,43.40
2023-01-28T06:05:40.148Z,41.45
2023-01-28T06:08:43.402Z,36.53
2023-01-28T06:11:48.018Z,35.00
2023-01-28T06:14:51.331Z,32.85
2023-01-28T06:18:13.361Z,30.85
2023-01-28T06:21:16.742Z,32.60
2023-01-28T06:24:21.175Z,33.80
2023-01-28T06:27:24.801Z,52.07
2023-01-28T06:30:28.223Z,41.95
2023-01-28T06:33:33.029Z,40.30
2023-01-28T06:36:37.049Z,38.75
2023-01-28T06:39:39.970Z,33.03
2023-01-28T06:42:42.925Z,25.90
2023-01-28T06:45:46.525Z,23.10
2023-01-28T06:48:49.441Z,14.70
2023-01-28T06:51:52.236Z,17.25
2023-01-28T06:54:55.952Z,17.67
2023-01-28T06:57:58.933Z,18.20
2023-01-28T07:01:02.949Z,27.38
2023-01-28T07:04:05.959Z,24.85
2023-01-28T07:07:09.901Z,25.70
2023-01-28T07:10:13.118Z,18.08
2023-01-28T07:13:16.397Z,11.50
2023-01-28T07:16:19.405Z,28.05
2023-01-28T07:19:22.599Z,22.17
2023-01-28T07:22:26.130Z,17.63
2023-01-28T07:25:29.465Z,20.00
2023-01-28T07:28:33.482Z,27.10
2023-01-28T07:31:36.903Z,18.92
2023-01-28T07:34:43.821Z,15.50
2023-01-28T07:37:54.877Z,7.53
2023-01-28T07:40:58.831Z,10.07
2023-01-28T07:44:02.547Z,8.13
2023-01-28T07:47:06.937Z,7.15
2023-01-28T07:50:12.497Z,8.20
2023-01-28T07:53:16.556Z,16.25
2023-01-28T07:56:20.229Z,9.45
2023-01-28T07:59:23.829Z,7.75
2023-01-28T08:02:29.896Z,8.10
2023-01-28T08:05:51.836Z,8.25
2023-01-28T08:08:54.777Z,13.95
2023-01-28T08:11:58.729Z,6.20
2023-01-28T08:15:02.282Z,4.70
2023-01-28T08:18:07.386Z,10.55
2023-01-28T08:21:11.008Z,7.20
2023-01-28T08:24:15.143Z,10.60
2023-01-28T08:27:18.720Z,7.30
2023-01-28T08:30:22.873Z,11.50
2023-01-28T08:33:28.089Z,9.80
2023-01-28T08:36:30.896Z,10.88
2023-01-28T08:39:35.344Z,12.23
2023-01-28T08:42:38.664Z,18.77
2023-01-28T08:45:42.097Z,18.13
2023-01-28T08:49:09.847Z,14.88
2023-01-28T08:52:13.797Z,23.17
2023-01-28T08:55:19.539Z,25.00
2023-01-28T08:58:23.229Z,17.50
2023-01-28T09:01:29.816Z,23.77
2023-01-28T09:04:33.939Z,34.28
2023-01-28T09:07:38.380Z,43.55
2023-01-28T09:10:43.094Z,42.22
2023-01-28T09:13:46.073Z,22.05
2023-01-28T09:16:49.992Z,35.13
2023-01-28T09:19:53.669Z,24.05
2023-01-28T09:22:56.849Z,28.60
2023-01-28T09:26:04.052Z,32.83
2023-01-28T09:29:07.332Z,44.58
2023-01-28T09:32:10.532Z,47.53
2023-01-28T09:35:16.159Z,29.92
2023-01-28T09:38:19.718Z,26.33
2023-01-28T09:41:58.374Z,45.55
2023-01-28T09:45:03.402Z,25.08
2023-01-28T09:48:13.131Z,24.40
2023-01-28T09:51:27.792Z,26.33
2023-01-28T09:54:49.754Z,28.67
2023-01-28T09:57:57.539Z,36.53
2023-01-28T10:01:23.500Z,27.08
2023-01-28T10:04:37.978Z,38.10
2023-01-28T10:07:56.779Z,52.92
2023-01-28T10:11:36.002Z,64.00
2023-01-28T10:15:05.715Z,73.28
2023-01-28T10:18:18.401Z,108.00
2023-01-28T10:21:31.832Z,79.88
2023-01-28T10:24:46.464Z,88.15
2023-01-28T10:27:51.772Z,88.40
2023-01-28T10:30:56.350Z,84.78
2023-01-28T10:34:00.995Z,91.32
2023-01-28T10:37:04.983Z,112.87
2023-01-28T10:40:17.879Z,139.18
2023-01-28T10:43:25.746Z,244.52
2023-01-28T10:46:33.940Z,193.68
2023-01-28T10:49:44.970Z,206.73
2023-01-28T10:53:07.338Z,192.73
2023-01-28T10:56:17.008Z,176.85
2023-01-28T10:59:33.531Z,188.37
2023-01-28T11:02:38.020Z,120.82
2023-01-28T11:05:52.361Z,73.97
2023-01-28T11:09:01.236Z,73.03
2023-01-28T11:12:26.563Z,80.22
2023-01-28T11:15:30.575Z,75.53
2023-01-28T11:18:42.141Z,106.60
2023-01-28T11:21:52.275Z,67.78
2023-01-28T11:24:56.301Z,78.13
2023-01-28T11:28:02.608Z,49.92
2023-01-28T11:31:06.663Z,32.87
2023-01-28T11:34:16.013Z,30.77
2023-01-28T11:37:24.929Z,18.08
2023-01-28T11:40:29.352Z,13.30
2023-01-28T11:43:33.005Z,18.35
2023-01-28T11:46:42.309Z,18.60
2023-01-28T11:49:56.087Z,24.63
2023-01-28T11:53:33.576Z,21.83
2023-01-28T11:56:59.626Z,22.85
2023-01-28T12:00:21.182Z,38.63
2023-01-28T12:03:29.042Z,41.73
2023-01-28T12:07:00.156Z,35.15
2023-01-28T12:10:14.380Z,53.70
2023-01-28T12:13:27.980Z,79.03
2023-01-28T12:16:49.275Z,63.90
2023-01-28T12:19:55.057Z,66.88
2023-01-28T12:23:55.715Z,69.85
2023-01-28T12:27:11.298Z,22.30
2023-01-28T12:30:26.891Z,33.47
2023-01-28T12:33:55.173Z,26.75
2023-01-28T12:37:10.749Z,32.67
2023-01-28T12:40:39.227Z,35.33
2023-01-28T12:43:46.280Z,24.67
2023-01-28T12:47:10.366Z,34.83
2023-01-28T12:50:29.763Z,32.90
2023-01-28T12:53:45.744Z,34.25
2023-01-28T12:56:55.341Z,29.45
2023-01-28T13:00:18.008Z,27.08
2023-01-28T13:03:34.923Z,28.02
2023-01-28T13:06:48.591Z,34.28
2023-01-28T13:10:05.196Z,46.20
2023-01-28T13:13:19.324Z,63.67
2023-01-28T13:16:35.915Z,65.53
2023-01-28T13:19:43.169Z,68.90
2023-01-28T13:22:46.728Z,56.67
2023-01-28T13:25:53.262Z,42.42
2023-01-28T13:29:17.183Z,19.33
2023-01-28T13:32:33.594Z,17.92
2023-01-28T13:35:39.944Z,17.17
2023-01-28T13:38:44.655Z,21.27
2023-01-28T13:42:10.723Z,16.50
2023-01-28T13:45:24.952Z,26.40
2023-01-28T13:48:40.808Z,45.78
2023-01-28T13:52:05.413Z,99.33
2023-01-28T13:55:41.371Z,67.60
2023-01-28T13:59:10.027Z,134.85
2023-01-28T14:02:51.330Z,74.28
2023-01-28T14:06:09.572Z,86.88
2023-01-28T14:09:16.449Z,55.33
2023-01-28T14:12:40.806Z,57.70
2023-01-28T14:16:14.553Z,45.73
2023-01-28T14:19:19.825Z,22.05
2023-01-28T14:22:47.825Z,45.72
2023-01-28T14:26:11.772Z,19.40
2023-01-28T14:29:14.980Z,29.52
2023-01-28T14:32:27.581Z,34.30
2023-01-28T14:35:38.473Z,27.98
2023-01-28T14:38:45.134Z,25.88
2023-01-28T14:41:51.515Z,68.22
2023-01-28T14:45:03.087Z,42.42
2023-01-28T14:48:18.441Z,75.33
2023-01-28T14:51:24.852Z,79.40
2023-01-28T14:54:36.904Z,59.05
2023-01-28T14:57:50.352Z,87.23
2023-01-28T15:00:56.659Z,82.88
2023-01-28T15:04:00.483Z,74.70
2023-01-28T15:07:22.656Z,93.95
2023-01-28T15:10:32.132Z,78.30
2023-01-28T15:13:42.395Z,74.80
2023-01-28T15:16:49.932Z,73.43
2023-01-28T15:19:57.433Z,53.93
2023-01-28T15:23:03.474Z,29.35
2023-01-28T15:26:10.525Z,32.55
2023-01-28T15:29:53.559Z,36.67
2023-01-28T15:33:06.986Z,62.40
2023-01-28T15:36:10.902Z,57.80
2023-01-28T15:39:25.884Z,31.95
2023-01-28T15:42:30.371Z,53.13
2023-01-28T15:45:33.946Z,41.10
2023-01-28T15:48:37.962Z,43.40
2023-01-28T15:51:41.946Z,31.77
2023-01-28T15:54:49.862Z,44.28
2023-01-28T15:57:52.758Z,54.25
2023-01-28T16:01:11.008Z,45.30
2023-01-28T16:04:27.074Z,46.13
2023-01-28T16:07:33.483Z,49.22
2023-01-28T16:10:37.733Z,45.13
2023-01-28T16:13:45.192Z,56.30
2023-01-28T16:16:49.378Z,58.90
2023-01-28T16:20:03.128Z,64.28
2023-01-28T16:23:22.613Z,79.83
2023-01-28T16:26:28.577Z,57.08
2023-01-28T16:29:32.812Z,53.17
2023-01-28T16:32:39.410Z,37.40
2023-01-28T16:36:04.412Z,23.48
2023-01-28T16:39:05.952Z,27.63
2023-01-28T16:45:37.727Z,25.67
2023-01-28T16:48:44.340Z,26.40
2023-01-28T16:51:47.953Z,35.97
2023-01-28T16:54:51.585Z,39.80
2023-01-28T16:57:57.750Z,16.27
2023-01-28T17:01:01.968Z,18.48
2023-01-28T17:04:12.058Z,19.57
2023-01-28T17:07:15.981Z,24.85
2023-01-28T17:10:21.222Z,22.42
2023-01-28T17:13:25.167Z,20.30
2023-01-28T17:16:28.824Z,20.08
2023-01-28T17:19:32.462Z,29.50
2023-01-28T17:22:41.100Z,21.48
2023-01-28T17:25:44.402Z,23.23
2023-01-28T17:28:53.880Z,29.35
2023-01-28T17:31:56.817Z,20.95
2023-01-28T17:35:00.460Z,27.73
2023-01-28T17:38:05.938Z,28.77
2023-01-28T17:41:09.765Z,30.02
2023-01-28T17:44:15.492Z,34.83
2023-01-28T17:47:18.681Z,26.67
2023-01-28T17:50:21.887Z,16.95
2023-01-28T17:53:25.293Z,13.90
2023-01-28T17:56:29.978Z,10.93
2023-01-28T17:59:33.595Z,12.05
2023-01-28T18:02:36.531Z,9.23
2023-01-28T18:05:40.464Z,12.13
2023-01-28T18:08:44.442Z,11.20
2023-01-28T18:11:48.105Z,10.75
2023-01-28T18:14:51.737Z,8.85
2023-01-28T18:17:54.705Z,5.95
2023-01-28T18:21:06.278Z,7.40
2023-01-28T18:24:10.812Z,6.75
2023-01-28T18:27:17.489Z,9.63
2023-01-28T18:30:21.347Z,7.28
2023-01-28T18:33:25.011Z,10.15
2023-01-28T18:36:28.057Z,11.83
2023-01-28T18:39:31.606Z,8.45
2023-01-28T18:42:37.961Z,6.28
2023-01-28T18:45:46.402Z,8.10
2023-01-28T18:48:50.110Z,12.75
2023-01-28T18:51:53.569Z,15.02
2023-01-28T18:54:58.125Z,13.13
2023-01-28T18:58:01.117Z,12.00
2023-01-28T19:01:09.856Z,10.45
2023-01-28T19:04:14.618Z,9.77
2023-01-28T19:07:17.548Z,12.07
2023-01-28T19:10:24.185Z,8.95
2023-01-28T19:13:29.192Z,13.98
2023-01-28T19:16:35.326Z,12.20
2023-01-28T19:19:38.370Z,12.38
2023-01-28T19:22:42.382Z,12.07
2023-01-28T19:25:46.108Z,10.20
2023-01-28T19:28:50.517Z,7.80
2023-01-28T19:31:54.290Z,10.70
2023-01-28T19:34:58.461Z,10.65
2023-01-28T19:38:02.300Z,8.47
2023-01-28T19:41:07.483Z,12.60
2023-01-28T19:44:11.152Z,12.80
2023-01-28T19:47:15.950Z,13.30
2023-01-28T19:50:18.968Z,8.82
2023-01-28T19:53:25.443Z,11.27
2023-01-28T19:56:30.441Z,12.15
2023-01-28T19:59:33.685Z,10.60
2023-01-28T20:02:36.580Z,9.45
2023-01-28T20:05:42.525Z,9.93
2023-01-28T20:08:51.451Z,8.03
2023-01-28T20:11:55.404Z,10.50
2023-01-28T20:14:59.021Z,7.90
2023-01-28T20:18:04.732Z,7.05
2023-01-28T20:21:08.812Z,10.02
2023-01-28T20:24:14.740Z,9.45
2023-01-28T20:27:18.314Z,8.18
2023-01-28T20:30:21.679Z,15.97
2023-01-28T20:33:24.868Z,10.00
2023-01-28T20:36:28.383Z,8.88
2023-01-28T20:39:31.261Z,16.27
2023-01-28T20:42:35.010Z,8.35
2023-01-28T20:45:38.224Z,17.27
2023-01-28T20:48:42.358Z,13.75
2023-01-28T20:51:45.910Z,10.30
2023-01-28T20:54:59.086Z,16.15
2023-01-28T20:58:02.083Z,10.73
2023-01-28T21:01:06.719Z,8.63
2023-01-28T21:04:10.911Z,10.82
2023-01-28T21:07:15.155Z,7.80
2023-01-28T21:10:18.450Z,6.27
2023-01-28T21:13:21.584Z,8.25
2023-01-28T21:16:25.439Z,13.90
2023-01-28T21:19:29.431Z,17.42
2023-01-28T21:22:32.369Z,22.58
2023-01-28T21:25:36.213Z,12.77
2023-01-28T21:28:38.996Z,20.33
2023-01-28T21:31:43.167Z,16.07
2023-01-28T21:34:46.932Z,13.50
2023-01-28T21:37:50.542Z,20.52
2023-01-28T21:40:54.216Z,10.53
2023-01-28T21:43:58.873Z,11.23
2023-01-28T21:47:02.077Z,8.90
2023-01-28T21:50:06.524Z,8.30
2023-01-28T21:53:10.113Z,8.40
2023-01-28T21:56:13.670Z,10.02
2023-01-28T21:59:33.109Z,9.45
2023-01-28T22:02:39.079Z,14.60
2023-01-28T22:05:43.108Z,14.93
2023-01-28T22:08:46.753Z,35.42
2023-01-28T22:11:50.321Z,32.47
2023-01-28T22:14:54.060Z,45.58
2023-01-28T22:17:57.899Z,19.30
2023-01-28T22:21:03.108Z,31.23
2023-01-28T22:24:06.644Z,8.48
2023-01-28T22:27:09.626Z,11.23
2023-01-28T22:30:13.075Z,11.93
2023-01-28T22:33:16.863Z,8.63
2023-01-28T22:36:20.944Z,9.50
2023-01-28T22:39:24.834Z,5.28
2023-01-28T22:42:27.794Z,20.63
2023-01-28T22:45:30.791Z,14.07
2023-01-28T22:48:36.404Z,12.02
2023-01-28T22:51:40.019Z,8.80
2023-01-28T22:54:43.994Z,16.90
2023-01-28T22:57:47.212Z,21.00
2023-01-28T23:00:51.325Z,22.10
2023-01-28T23:03:56.474Z,16.43
2023-01-28T23:06:59.395Z,17.08
2023-01-28T23:10:02.245Z,20.73
2023-01-28T23:13:05.429Z,30.47
2023-01-28T23:16:27.663Z,30.75
2023-01-28T23:19:49.040Z,32.55
2023-01-28T23:23:12.699Z,35.95
2023-01-28T23:26:18.801Z,35.38
2023-01-28T23:29:27.645Z,29.45
2023-01-28T23:32:31.871Z,21.55
2023-01-28T23:35:35.662Z,27.13
2023-01-28T23:38:39.542Z,39.83
2023-01-28T23:41:43.120Z,45.70
2023-01-28T23:44:47.684Z,35.43
2023-01-28T23:47:53.004Z,43.83
2023-01-28T23:50:57.121Z,26.98
2023-01-28T23:54:00.822Z,39.05
2023-01-28T23:57:05.641Z,41.33
